Time;durP1;ratioP1;P1;durP2;ratioP2;P2;SDS_P1;SDS_P2;PMS_P1;PMS_P2;Temp;Humidity;BMP_temperature;BMP_pressure;BME280_temperature;BME280_humidity;BME280_pressure;Samples;Min_cycle;Max_cycle;Signal;HPM_P1;HPM_P2
2022/12/12 00:15:51;;;;;;;;;;;;;;;;;;;;;
2022/12/12 00:28:01;;;;;;;11.17;8.53;;;;;;;0.08;67.94;94785.34;6149687;23;20216;-92
2022/12/12 00:31:07;;;;;;;11.20;8.30;;;;;;;0.06;68.06;94786.41;6113797;23;20190;-91
2022/12/12 01:11:06;;;;;;;13.57;9.33;;;;;;;0.06;68.38;94804.94;6033198;23;20912;-91
2022/12/12 01:28:13;;;;;;;12.93;9.10;;;;;;;-0.03;68.15;94811.59;6170384;23;20687;-91
2022/12/12 01:35:00;;;;;;;12.40;8.73;;;;;;;-0.02;68.58;94809.88;6034681;23;20211;-90
2022/12/12 01:38:27;;;;;;;11.03;8.93;;;;;;;-0.07;68.30;94805.19;6062722;23;20278;-91
2022/12/12 03:00:39;;;;;;;;;;;;;;;;;;;;;
2022/12/12 04:13:02;;;;;;;10.47;7.97;;;;;;;-0.69;69.08;94843.31;6140189;23;20244;-90
2022/12/12 04:30:26;;;;;;;9.40;7.53;;;;;;;-0.80;68.97;94851.81;6073016;23;20176;-91
2022/12/12 04:33:41;;;;;;;9.83;7.37;;;;;;;-0.75;68.91;94854.72;6117903;23;20219;-90
2022/12/12 05:07:17;;;;;;;11.00;8.00;;;;;;;-0.83;68.17;94871.47;5847287;23;20193;-80
2022/12/12 05:09:45;;;;;;;11.27;8.07;;;;;;;-0.81;68.06;94878.00;6063280;23;20498;-81
2022/12/12 05:12:12;;;;;;;10.47;7.60;;;;;;;-0.89;67.94;94882.06;6180022;23;20280;-81
2022/12/12 05:14:38;;;;;;;10.67;7.67;;;;;;;-0.94;68.49;94886.66;6184308;23;20184;-81
2022/12/12 05:17:08;;;;;;;12.07;8.83;;;;;;;-0.93;68.33;94890.81;6184053;23;20185;-82
2022/12/12 05:19:35;;;;;;;11.27;8.00;;;;;;;-0.90;68.05;94882.97;6183600;23;20170;-80
2022/12/12 05:22:01;;;;;;;10.60;7.97;;;;;;;-0.85;68.12;94886.75;6183477;23;20194;-81
2022/12/12 05:24:30;;;;;;;11.20;7.90;;;;;;;-0.78;68.00;94892.13;6183033;23;20174;-81
2022/12/12 05:26:58;;;;;;;12.33;7.93;;;;;;;-0.90;68.33;94893.88;6182826;23;20262;-80
2022/12/12 05:29:25;;;;;;;10.10;7.77;;;;;;;-0.90;68.11;94896.41;6173365;23;20181;-80
2022/12/12 05:31:51;;;;;;;11.33;8.13;;;;;;;-0.89;68.23;94897.22;6182121;23;20181;-83
2022/12/12 05:34:18;;;;;;;9.57;7.73;;;;;;;-0.96;67.70;94896.91;6180885;23;20165;-81
2022/12/12 05:36:44;;;;;;;11.10;7.80;;;;;;;-0.90;68.08;94903.19;6182408;23;20181;-81
2022/12/12 05:39:11;;;;;;;10.87;8.00;;;;;;;-0.93;68.04;94903.44;6181907;23;20225;-80
2022/12/12 05:41:37;;;;;;;9.40;7.87;;;;;;;-0.93;67.79;94908.50;6179343;23;20178;-81
2022/12/12 05:44:05;;;;;;;10.50;8.13;;;;;;;-1.00;67.92;94914.97;6179615;23;20202;-80
2022/12/12 05:46:32;;;;;;;11.00;8.50;;;;;;;-1.06;68.21;94921.31;6179842;23;20188;-80
2022/12/12 05:48:58;;;;;;;10.97;8.20;;;;;;;-1.04;67.85;94924.53;6181653;23;20166;-81
2022/12/12 05:51:25;;;;;;;11.73;7.97;;;;;;;-1.10;67.58;94913.16;6183150;23;20207;-81
2022/12/12 05:53:52;;;;;;;11.03;8.00;;;;;;;-1.17;68.04;94913.78;6183490;23;20194;-81
2022/12/12 05:56:18;;;;;;;9.70;7.77;;;;;;;-1.19;67.85;94923.22;6182461;23;20503;-82
2022/12/12 05:58:45;;;;;;;8.97;7.40;;;;;;;-1.10;68.21;94922.47;6183700;23;20232;-80
2022/12/12 06:01:13;;;;;;;10.40;7.70;;;;;;;-1.11;68.20;94929.25;6185357;23;20499;-82
2022/12/12 06:03:39;;;;;;;11.57;8.07;;;;;;;-1.09;68.02;94929.94;6184223;23;20198;-81
2022/12/12 06:06:06;;;;;;;11.13;8.10;;;;;;;-1.05;67.86;94926.25;6184263;23;20205;-80
2022/12/12 06:08:33;;;;;;;10.33;7.77;;;;;;;-1.04;67.66;94924.53;6182124;23;20646;-79
2022/12/12 06:10:59;;;;;;;12.13;8.10;;;;;;;-1.03;67.84;94928.66;6182945;23;20201;-81
2022/12/12 06:13:26;;;;;;;11.03;8.13;;;;;;;-1.10;67.93;94925.81;6178800;23;20194;-81
2022/12/12 06:15:52;;;;;;;10.77;7.63;;;;;;;-1.06;67.96;94932.22;6182084;23;20166;-83
2022/12/12 06:18:20;;;;;;;11.57;7.93;;;;;;;-1.11;68.20;94929.25;6182938;23;20181;-81
2022/12/12 06:20:46;;;;;;;11.90;8.57;;;;;;;-1.13;68.19;94932.81;6182296;23;20185;-82
2022/12/12 06:23:13;;;;;;;11.47;8.77;;;;;;;-1.14;68.47;94926.97;6181594;23;20206;-81
2022/12/12 06:25:39;;;;;;;11.50;8.07;;;;;;;-1.15;68.50;94927.06;6182536;23;20174;-82
2022/12/12 06:28:06;;;;;;;10.80;7.97;;;;;;;-1.13;68.66;94931.09;6181597;23;20183;-81
2022/12/12 06:30:32;;;;;;;15.50;8.60;;;;;;;-1.14;72.44;94929.47;6182498;23;20181;-80
2022/12/12 06:32:59;;;;;;;11.73;9.27;;;;;;;-1.14;70.13;94929.47;6181980;23;20213;-80
2022/12/12 06:35:26;;;;;;;9.80;8.10;;;;;;;-1.09;69.59;94926.59;6182994;23;20174;-82
2022/12/12 06:37:53;;;;;;;17.33;12.30;;;;;;;-1.03;69.45;94935.41;6181915;23;20178;-82
2022/12/12 06:40:27;;;;;;;18.40;12.03;;;;;;;-1.09;69.07;94932.44;6182470;23;20182;-82
2022/12/12 06:42:53;;;;;;;13.57;9.77;;;;;;;-1.08;68.90;94935.78;6182391;23;20237;-82
2022/12/12 06:45:20;;;;;;;10.77;7.77;;;;;;;-1.06;69.04;94936.47;6182218;23;20258;-81
2022/12/12 06:47:47;;;;;;;12.37;8.63;;;;;;;-1.15;69.09;94934.66;6181227;23;20167;-82
2022/12/12 06:50:13;;;;;;;12.90;9.10;;;;;;;-1.16;69.16;94935.59;6178750;23;20178;-81
2022/12/12 06:52:41;;;;;;;11.83;8.17;;;;;;;-1.21;69.21;94940.22;6181314;23;20285;-81
2022/12/12 06:55:08;;;;;;;11.73;8.97;;;;;;;-1.29;70.17;94938.28;6182517;23;20178;-81
2022/12/12 06:57:35;;;;;;;11.80;9.03;;;;;;;-1.27;70.17;94941.47;6182306;23;20242;-81
2022/12/12 07:00:02;;;;;;;11.90;8.73;;;;;;;-1.37;69.66;94945.66;6182517;23;20407;-81
2022/12/12 07:02:29;;;;;;;10.80;8.53;;;;;;;-1.36;69.76;94959.09;6181865;23;20737;-82
2022/12/12 07:04:56;;;;;;;9.77;7.80;;;;;;;-1.36;69.51;94959.91;6182159;23;20190;-82
2022/12/12 07:07:22;;;;;;;10.30;8.00;;;;;;;-1.50;70.14;94957.63;6181006;23;20174;-82
2022/12/12 07:09:50;;;;;;;14.73;8.53;;;;;;;-1.38;69.65;94954.16;6178733;23;20538;-83
2022/12/12 07:12:17;;;;;;;11.27;8.53;;;;;;;-1.33;69.58;94957.09;6181822;23;20198;-82
2022/12/12 07:14:43;;;;;;;13.20;8.17;;;;;;;-1.29;69.33;94955.16;6182253;23;20177;-81
2022/12/12 07:17:10;;;;;;;12.13;8.13;;;;;;;-1.25;69.49;94961.56;6182302;23;20179;-82
2022/12/12 07:19:36;;;;;;;18.90;12.67;;;;;;;-1.21;69.19;94956.16;6181147;23;20178;-83
2022/12/12 07:22:03;;;;;;;11.77;8.87;;;;;;;-1.23;68.71;94962.25;6181960;23;20181;-81
2022/12/12 07:24:29;;;;;;;11.73;8.57;;;;;;;-1.17;68.41;94964.31;6182478;23;20202;-82
2022/12/12 07:26:57;;;;;;;12.77;8.40;;;;;;;-1.15;68.30;94955.66;6182111;23;20180;-80
2022/12/12 07:29:23;;;;;;;13.40;8.10;;;;;;;-1.08;68.15;94961.84;6181809;23;20181;-82
2022/12/12 07:31:50;;;;;;;11.40;8.50;;;;;;;-1.06;68.07;94965.06;6181923;23;20532;-81
2022/12/12 07:34:16;;;;;;;11.00;8.40;;;;;;;-0.98;67.98;94968.72;6181437;23;20478;-81
2022/12/12 07:36:43;;;;;;;11.53;7.97;;;;;;;-0.96;67.73;94972.69;6181737;23;20162;-81
2022/12/12 07:39:09;;;;;;;11.13;8.43;;;;;;;-0.96;67.99;94971.91;6181615;23;20178;-80
2022/12/12 07:41:38;;;;;;;13.67;7.73;;;;;;;-0.96;67.58;94975.22;6181206;23;20174;-82
2022/12/12 07:44:08;;;;;;;11.43;8.20;;;;;;;-0.96;67.17;94979.50;6182123;23;20202;-81
2022/12/12 07:46:35;;;;;;;10.27;8.03;;;;;;;-0.90;67.01;94979.00;6181891;23;20163;-82
2022/12/12 07:49:01;;;;;;;12.13;7.23;;;;;;;-1.06;66.69;94981.94;6181292;23;20193;-82
2022/12/12 07:51:28;;;;;;;11.77;7.70;;;;;;;-1.08;66.57;94988.81;6181765;23;20193;-84
2022/12/12 07:53:54;;;;;;;9.23;7.47;;;;;;;-0.99;66.30;94984.78;6181560;23;20190;-83
2022/12/12 07:56:21;;;;;;;11.33;7.60;;;;;;;-1.00;66.26;95000.88;6181909;23;20174;-81
2022/12/12 07:58:47;;;;;;;10.03;7.43;;;;;;;-0.88;65.91;94989.78;6180823;23;20192;-81
2022/12/12 08:01:18;;;;;;;11.27;7.07;;;;;;;-0.75;65.76;94992.91;6182201;23;20739;-82
2022/12/12 08:03:46;;;;;;;9.87;7.47;;;;;;;-0.70;65.14;94996.69;6181111;23;20202;-81
2022/12/12 08:06:15;;;;;;;8.43;6.53;;;;;;;-0.68;64.92;94991.53;6181948;23;20182;-83
2022/12/12 08:08:41;;;;;;;8.90;7.10;;;;;;;-0.61;64.51;94991.84;6180177;23;20181;-81
2022/12/12 08:11:09;;;;;;;8.13;6.87;;;;;;;-0.54;64.34;94998.78;6180864;23;20782;-83
2022/12/12 08:13:37;;;;;;;9.07;6.50;;;;;;;-0.57;63.85;95000.75;6181215;23;20197;-82
2022/12/12 08:16:05;;;;;;;9.67;6.87;;;;;;;-0.48;63.90;94998.31;6181116;23;20178;-80
2022/12/12 08:18:33;;;;;;;7.90;6.57;;;;;;;-0.37;63.74;94994.91;6179984;23;20242;-81
2022/12/12 08:21:00;;;;;;;8.83;6.63;;;;;;;-0.31;62.96;94998.66;6180547;23;20182;-82
2022/12/12 08:23:27;;;;;;;8.83;6.43;;;;;;;-0.28;63.10;95001.75;6181039;23;20205;-82
2022/12/12 08:25:53;;;;;;;7.93;6.13;;;;;;;-0.16;63.11;94997.41;6181305;23;20158;-82
2022/12/12 08:28:20;;;;;;;9.67;6.80;;;;;;;0.02;62.80;95003.47;6180133;23;20182;-82
2022/12/12 08:30:49;;;;;;;7.87;5.87;;;;;;;0.12;62.09;95004.34;6180347;23;20185;-81
2022/12/12 08:33:16;;;;;;;7.00;5.83;;;;;;;0.18;61.47;95005.56;6180281;23;20202;-82
2022/12/12 08:35:44;;;;;;;8.63;6.53;;;;;;;0.28;61.93;95007.19;6180481;23;20168;-82
2022/12/12 08:38:10;;;;;;;8.17;6.23;;;;;;;0.40;60.64;95005.34;6180826;23;20174;-80
2022/12/12 08:40:37;;;;;;;9.63;6.40;;;;;;;0.55;60.96;95019.28;6180371;23;20655;-82
2022/12/12 08:43:04;;;;;;;8.87;6.90;;;;;;;0.64;60.90;95017.69;6181266;23;20201;-82
2022/12/12 08:45:30;;;;;;;14.07;9.67;;;;;;;0.72;60.54;95014.50;6181832;23;20158;-81
2022/12/12 08:47:57;;;;;;;9.03;6.93;;;;;;;0.76;59.72;95014.13;6180900;23;20182;-82
2022/12/12 08:50:25;;;;;;;7.30;6.00;;;;;;;0.67;62.30;95014.91;6181446;23;20174;-82
2022/12/12 08:52:54;;;;;;;8.57;5.53;;;;;;;0.65;60.23;95016.75;6181417;23;20200;-81
2022/12/12 08:55:20;;;;;;;8.60;6.47;;;;;;;0.74;60.34;95012.66;6181925;23;20174;-82
2022/12/12 08:57:47;;;;;;;8.60;6.37;;;;;;;0.86;60.10;95021.72;6181836;23;20548;-80
2022/12/12 09:00:15;;;;;;;7.93;5.97;;;;;;;0.90;60.06;95025.59;6182055;23;20181;-82
2022/12/12 09:02:41;;;;;;;7.37;5.50;;;;;;;0.95;59.33;95026.81;6181397;23;20198;-81
2022/12/12 09:05:08;;;;;;;8.07;6.13;;;;;;;1.01;58.89;95035.63;6110333;23;20207;-82
2022/12/12 09:07:35;;;;;;;8.03;5.30;;;;;;;1.09;59.25;95028.16;6152697;23;20175;-83
2022/12/12 09:10:03;;;;;;;7.20;5.53;;;;;;;1.19;58.68;95028.16;6151837;23;20179;-81
2022/12/12 09:12:30;;;;;;;6.43;5.47;;;;;;;1.29;59.15;95022.16;6152414;23;20198;-82
2022/12/12 09:14:56;;;;;;;6.43;5.70;;;;;;;1.50;59.17;95028.84;6152691;23;20218;-82
2022/12/12 09:17:23;;;;;;;7.37;5.30;;;;;;;1.57;57.66;95028.13;6151387;23;20175;-82
2022/12/12 09:19:49;;;;;;;7.70;5.17;;;;;;;1.67;57.64;95025.59;6151986;23;20255;-82
2022/12/12 09:22:16;;;;;;;7.53;5.40;;;;;;;1.81;57.64;95026.91;6152539;23;20202;-82
2022/12/12 09:24:43;;;;;;;5.80;5.03;;;;;;;1.98;57.15;95027.00;6152451;23;20532;-82
2022/12/12 09:27:10;;;;;;;7.23;5.70;;;;;;;2.13;56.49;95029.88;6153164;23;20513;-80
2022/12/12 09:29:37;;;;;;;6.03;5.13;;;;;;;2.33;56.62;95030.63;6157742;23;20179;-82
2022/12/12 09:32:05;;;;;;;6.63;5.30;;;;;;;2.19;55.72;95038.69;6159695;23;20186;-81
2022/12/12 09:34:32;;;;;;;7.17;5.63;;;;;;;2.11;55.98;95039.41;6182497;23;20182;-83
2022/12/12 09:36:58;;;;;;;7.50;5.03;;;;;;;2.17;56.02;95038.84;6181539;23;20691;-82
2022/12/12 09:39:25;;;;;;;6.30;5.10;;;;;;;2.35;56.18;95043.97;6181174;23;20178;-81
2022/12/12 09:41:51;;;;;;;7.17;5.33;;;;;;;2.38;55.63;95036.09;6181993;23;20503;-82
2022/12/12 09:44:21;;;;;;;5.93;5.00;;;;;;;2.15;55.50;95038.16;6182470;23;20198;-82
2022/12/12 09:46:52;;;;;;;7.37;5.60;;;;;;;2.16;55.49;95041.50;6181647;23;20225;-82
2022/12/12 09:49:26;;;;;;;7.30;5.27;;;;;;;2.03;55.87;95039.28;6183214;23;20521;-81
2022/12/12 09:51:54;;;;;;;9.17;6.70;;;;;;;2.12;55.56;95043.53;6183478;23;20162;-80
2022/12/12 09:54:25;;;;;;;12.20;7.70;;;;;;;2.30;56.08;95038.53;6183809;23;20170;-82
2022/12/12 09:57:02;;;;;;;7.70;5.17;;;;;;;2.27;55.87;95043.91;6183631;23;20158;-83
2022/12/12 09:59:37;;;;;;;7.67;5.30;;;;;;;2.46;56.31;95043.81;6183509;23;20241;-82
2022/12/12 10:02:22;;;;;;;6.70;5.20;;;;;;;2.60;55.96;95045.09;6183022;23;20166;-83
2022/12/12 10:04:58;;;;;;;6.80;5.30;;;;;;;2.66;55.33;95042.78;6182666;23;20178;-81
2022/12/12 10:07:29;;;;;;;5.87;5.07;;;;;;;2.69;54.89;95045.03;6183269;23;20158;-81
2022/12/12 10:10:03;;;;;;;7.37;5.27;;;;;;;2.76;54.04;95041.00;6181884;23;20227;-82
2022/12/12 10:12:31;;;;;;;6.80;4.70;;;;;;;2.86;54.10;95035.06;6184277;23;20201;-81
2022/12/12 10:15:02;;;;;;;8.20;4.73;;;;;;;2.80;53.69;95036.44;6183455;23;20174;-82
2022/12/12 10:17:34;;;;;;;10.27;5.17;;;;;;;2.75;54.11;95031.75;6183241;23;20178;-81
2022/12/12 10:20:04;;;;;;;7.10;4.83;;;;;;;2.63;54.07;95029.56;6183767;23;20166;-82
2022/12/12 10:22:36;;;;;;;6.73;5.03;;;;;;;2.34;54.74;95022.06;6183676;23;20194;-82
2022/12/12 10:25:08;;;;;;;6.77;5.20;;;;;;;2.46;55.14;95025.25;6184136;23;20182;-82
2022/12/12 10:27:35;;;;;;;5.73;4.83;;;;;;;2.57;55.19;95027.59;6183437;23;20163;-82
2022/12/12 10:30:14;;;;;;;6.23;5.23;;;;;;;2.71;54.42;95029.66;6183974;23;20233;-81
2022/12/12 10:32:57;;;;;;;6.13;5.10;;;;;;;2.88;53.60;95023.81;6183472;23;20838;-82
2022/12/12 10:35:29;;;;;;;7.20;4.90;;;;;;;3.04;53.78;95021.44;6183347;23;20515;-82
2022/12/12 10:38:11;;;;;;;6.13;4.93;;;;;;;3.05;52.91;95020.50;6183121;23;20163;-80
2022/12/12 10:40:51;;;;;;;4.90;4.30;;;;;;;2.97;51.63;95019.59;6183155;23;20170;-81
2022/12/12 10:43:21;;;;;;;4.63;4.00;;;;;;;2.99;51.83;95013.44;6183365;23;20225;-81
2022/12/12 10:46:11;;;;;;;4.93;4.20;;;;;;;2.95;51.05;95011.31;6182640;23;20206;-82
2022/12/12 10:48:39;;;;;;;5.33;4.47;;;;;;;2.95;51.51;95004.47;6182770;23;20162;-81
2022/12/12 10:51:07;;;;;;;5.30;4.20;;;;;;;3.04;51.98;95007.91;6182920;23;20758;-80
2022/12/12 10:53:35;;;;;;;5.33;4.47;;;;;;;3.08;52.20;94997.28;6182577;23;20196;-82
2022/12/12 10:56:05;;;;;;;5.93;4.77;;;;;;;3.19;52.08;95003.13;6182447;23;20178;-80
2022/12/12 10:58:37;;;;;;;10.43;4.73;;;;;;;3.22;51.48;95002.84;6182212;23;20219;-81
2022/12/12 11:01:11;;;;;;;6.73;4.70;;;;;;;3.21;52.08;95003.78;6182407;23;20162;-81
2022/12/12 11:03:41;;;;;;;6.33;4.97;;;;;;;3.33;51.50;95002.59;6182289;23;20200;-80
2022/12/12 11:06:14;;;;;;;7.87;4.80;;;;;;;3.38;51.23;95003.78;6182970;23;20247;-81
2022/12/12 11:08:53;;;;;;;5.23;4.07;;;;;;;3.43;49.67;95003.34;6181171;23;20166;-82
2022/12/12 11:11:21;;;;;;;6.13;4.70;;;;;;;3.43;48.83;95008.44;6182967;23;20221;-81
2022/12/12 11:13:51;;;;;;;7.87;5.03;;;;;;;3.45;48.48;95002.25;6182292;23;20714;-81
2022/12/12 11:16:22;;;;;;;6.13;4.53;;;;;;;3.57;48.66;95005.34;6182451;23;20178;-82
2022/12/12 11:19:06;;;;;;;5.50;3.60;;;;;;;3.60;47.65;95004.25;6182099;23;20162;-82
2022/12/12 11:21:35;;;;;;;5.60;3.80;;;;;;;3.50;47.56;95001.78;6182492;23;20158;-81
2022/12/12 11:24:08;;;;;;;5.90;3.60;;;;;;;3.60;47.20;94994.88;6182123;23;20202;-81
2022/12/12 11:26:42;;;;;;;7.43;3.63;;;;;;;3.47;48.34;94996.97;6182301;23;20236;-81
2022/12/12 11:29:31;;;;;;;7.60;4.37;;;;;;;3.40;47.65;94998.53;6182450;23;20162;-81
2022/12/12 11:31:59;;;;;;;10.13;4.17;;;;;;;3.50;47.84;95000.97;6181717;23;20193;-81
2022/12/12 11:34:27;;;;;;;11.27;3.27;;;;;;;3.59;46.10;95000.09;6182370;23;20245;-81
2022/12/12 11:36:55;;;;;;;5.20;3.40;;;;;;;3.59;45.83;94998.38;6182626;23;20174;-82
2022/12/12 11:39:24;;;;;;;7.43;3.70;;;;;;;3.56;46.28;94995.31;6181868;23;20175;-81
2022/12/12 11:41:58;;;;;;;7.53;3.63;;;;;;;3.52;46.09;95004.19;6181886;23;20171;-81
2022/12/12 11:44:26;;;;;;;6.67;3.80;;;;;;;3.34;46.98;95002.44;6181380;23;20193;-79
2022/12/12 11:46:52;;;;;;;9.13;3.30;;;;;;;3.04;45.48;95002.84;6182163;23;20181;-82
2022/12/12 11:49:20;;;;;;;6.27;3.30;;;;;;;2.99;46.22;95005.81;6181886;23;20177;-81
2022/12/12 11:51:47;;;;;;;4.60;3.40;;;;;;;3.13;45.89;94999.41;6181876;23;20175;-82
2022/12/12 11:54:18;;;;;;;12.23;3.80;;;;;;;3.03;46.70;94998.69;6182713;23;20194;-81
2022/12/12 11:56:50;;;;;;;6.10;3.30;;;;;;;2.90;46.01;94983.78;6181474;23;20169;-81
2022/12/12 11:59:53;;;;;;;4.53;3.73;;;;;;;2.71;46.36;94991.53;6181853;23;20564;-82
2022/12/12 12:02:53;;;;;;;6.60;3.50;;;;;;;2.80;47.69;94985.59;6181851;23;20198;-82
2022/12/12 12:05:27;;;;;;;4.33;3.33;;;;;;;2.81;47.50;94988.94;6174292;23;20629;-82
2022/12/12 12:08:12;;;;;;;17.83;10.87;;;;;;;2.55;47.65;94984.53;6181592;23;20691;-82
2022/12/12 12:10:51;;;;;;;5.40;4.53;;;;;;;2.74;48.26;94979.34;6182530;23;20385;-81
2022/12/12 12:13:31;;;;;;;5.97;4.10;;;;;;;3.01;47.94;94988.66;6183231;23;20204;-82
2022/12/12 12:16:11;;;;;;;7.03;3.83;;;;;;;3.25;47.15;94977.91;6179415;23;20499;-81
2022/12/12 12:18:50;;;;;;;5.13;3.77;;;;;;;3.45;46.17;94976.81;6181805;23;20173;-81
2022/12/12 12:21:29;;;;;;;8.33;4.20;;;;;;;3.55;45.01;94969.06;6181415;23;20158;-80
2022/12/12 12:24:18;;;;;;;7.10;3.73;;;;;;;3.71;44.55;94970.91;6181855;23;20194;-80
2022/12/12 12:26:56;;;;;;;6.27;3.60;;;;;;;3.83;44.32;94976.56;6178162;23;20159;-80
2022/12/12 12:29:42;;;;;;;4.70;3.37;;;;;;;4.02;44.06;94974.63;6181551;23;20163;-82
2022/12/12 12:32:15;;;;;;;4.93;2.97;;;;;;;4.05;43.57;94969.19;6181306;23;20186;-82
2022/12/12 12:34:53;;;;;;;5.33;3.03;;;;;;;4.15;43.60;94979.28;6181748;23;20485;-83
2022/12/12 12:37:34;;;;;;;3.77;2.90;;;;;;;4.26;43.33;94975.66;6181814;23;20166;-83
2022/12/12 12:40:15;;;;;;;3.03;2.40;;;;;;;4.11;40.87;94977.97;6181277;23;20159;-81
2022/12/12 12:42:57;;;;;;;4.03;2.80;;;;;;;4.19;41.60;94980.59;6179974;23;20213;-80
2022/12/12 12:45:31;;;;;;;16.57;11.20;;;;;;;4.29;40.32;94977.91;6180950;23;20190;-81
2022/12/12 12:48:01;;;;;;;30.77;20.83;;;;;;;4.08;41.67;94981.63;6180985;23;20165;-79
2022/12/12 12:50:31;;;;;;;7.67;5.90;;;;;;;4.19;42.60;94983.13;6180485;23;20174;-80
2022/12/12 12:53:05;;;;;;;4.70;4.20;;;;;;;4.18;41.98;94973.88;6181135;23;20194;-81
2022/12/12 12:55:39;;;;;;;4.33;3.90;;;;;;;4.10;41.74;94978.94;6180003;23;20551;-82
2022/12/12 12:58:14;;;;;;;3.93;3.33;;;;;;;4.13;41.55;94973.53;6181636;23;20172;-82
2022/12/12 13:00:41;;;;;;;5.40;3.23;;;;;;;4.24;40.67;94978.34;6182307;23;20158;-81
2022/12/12 13:03:18;;;;;;;5.60;3.20;;;;;;;4.26;40.92;94973.09;6182037;23;20204;-82
2022/12/12 13:05:48;;;;;;;6.67;3.10;;;;;;;4.21;39.71;94973.59;6182195;23;20265;-81
2022/12/12 13:08:24;;;;;;;4.17;3.17;;;;;;;4.30;40.57;94972.66;6179703;23;20162;-82
2022/12/12 13:10:55;;;;;;;4.30;3.30;;;;;;;4.37;40.08;94973.66;6181723;23;20158;-80
2022/12/12 13:13:24;;;;;;;6.30;3.33;;;;;;;4.24;39.64;94969.91;6181203;23;20202;-83
2022/12/12 13:15:54;;;;;;;5.23;3.53;;;;;;;4.38;40.04;94970.16;6180888;23;20228;-82
2022/12/12 13:18:21;;;;;;;3.57;3.03;;;;;;;4.46;40.11;94965.06;6182643;23;20158;-82
2022/12/12 13:20:55;;;;;;;4.00;3.03;;;;;;;4.46;39.84;94969.38;6181255;23;20159;-82
2022/12/12 13:23:56;;;;;;;6.30;3.50;;;;;;;4.32;39.23;94967.41;6182652;23;20194;-82
2022/12/12 13:26:27;;;;;;;4.20;3.30;;;;;;;4.20;39.53;94966.91;6182739;23;20185;-80
2022/12/12 13:28:58;;;;;;;3.87;3.47;;;;;;;4.13;40.48;94974.34;6182808;23;20163;-82
2022/12/12 13:31:52;;;;;;;4.80;3.67;;;;;;;4.00;40.27;94976.50;6183339;23;20159;-82
2022/12/12 13:34:23;;;;;;;22.20;13.97;;;;;;;3.84;40.20;94980.72;6183337;23;20257;-80
2022/12/12 13:36:51;;;;;;;5.37;4.53;;;;;;;3.63;40.42;94975.97;6183653;23;20163;-82
2022/12/12 13:39:29;;;;;;;7.60;4.00;;;;;;;3.53;41.23;94977.78;6182477;23;20200;-81
2022/12/12 13:41:59;;;;;;;5.77;3.60;;;;;;;3.45;41.97;94986.19;6182887;23;20165;-82
2022/12/12 13:44:35;;;;;;;6.30;3.60;;;;;;;3.30;42.38;94974.91;6183430;23;20570;-82
2022/12/12 13:47:03;;;;;;;4.57;3.27;;;;;;;3.22;42.58;94982.47;6176611;23;20162;-82
2022/12/12 13:49:44;;;;;;;4.30;3.47;;;;;;;3.05;42.01;94991.72;6178356;23;20170;-82
2022/12/12 13:52:31;;;;;;;6.10;3.57;;;;;;;2.86;43.77;94987.56;6183717;23;20238;-83
2022/12/12 13:55:21;;;;;;;4.20;3.60;;;;;;;2.67;44.06;94993.56;6186471;23;20249;-82
2022/12/12 13:58:16;;;;;;;4.83;3.30;;;;;;;2.53;45.38;94996.56;6182916;23;20834;-83
2022/12/12 14:00:42;;;;;;;4.40;3.43;;;;;;;2.27;45.34;94990.56;6183991;23;20605;-83
2022/12/12 14:03:29;;;;;;;4.40;3.43;;;;;;;2.39;46.05;94997.06;6183587;23;20277;-81
2022/12/12 14:06:09;;;;;;;4.20;3.60;;;;;;;2.44;46.44;94989.81;6184125;23;20545;-82
2022/12/12 14:08:38;;;;;;;9.27;3.77;;;;;;;2.48;45.92;94987.78;6182305;23;20858;-82
2022/12/12 14:11:09;;;;;;;6.53;3.43;;;;;;;2.62;45.42;94989.84;6182719;23;20182;-83
2022/12/12 14:13:44;;;;;;;5.33;3.77;;;;;;;2.52;45.21;94986.56;6184564;23;20190;-83
2022/12/12 14:16:25;;;;;;;7.70;3.90;;;;;;;2.29;45.40;94988.69;6182759;23;20201;-82
2022/12/12 14:19:02;;;;;;;8.13;3.97;;;;;;;2.26;45.70;94999.94;6183271;23;20155;-80
2022/12/12 14:21:44;;;;;;;6.53;3.90;;;;;;;2.28;45.80;94994.72;6183087;23;20186;-82
2022/12/12 14:25:02;;;;;;;5.20;4.00;;;;;;;2.13;46.97;94996.06;6183231;23;20198;-82
2022/12/12 14:28:03;;;;;;;19.90;12.43;;;;;;;1.94;57.55;94999.47;6182407;23;20169;-81
2022/12/12 14:30:57;;;;;;;9.13;5.47;;;;;;;1.99;49.23;94999.88;6182780;23;20167;-82
2022/12/12 14:34:15;;;;;;;8.90;6.13;;;;;;;1.97;48.82;95005.09;6178756;23;20213;-80
2022/12/12 14:37:01;;;;;;;8.17;6.33;;;;;;;1.78;49.19;94997.53;6181821;23;20158;-82
2022/12/12 14:39:53;;;;;;;11.73;4.83;;;;;;;1.62;49.85;95010.78;6182159;23;20166;-82
2022/12/12 14:42:27;;;;;;;6.57;4.93;;;;;;;1.48;50.64;95008.69;6183207;23;20224;-81
2022/12/12 14:44:55;;;;;;;14.00;5.60;;;;;;;1.44;50.69;95014.16;6182810;23;20667;-82
2022/12/12 14:47:21;;;;;;;11.63;5.50;;;;;;;1.56;50.06;95015.59;6182803;23;20162;-81
2022/12/12 14:49:49;;;;;;;7.37;5.27;;;;;;;1.68;50.13;95012.78;6181368;23;20178;-82
2022/12/12 14:52:20;;;;;;;7.60;5.43;;;;;;;1.77;50.18;95007.81;6181951;23;20166;-81
2022/12/12 14:54:49;;;;;;;7.07;4.90;;;;;;;1.83;49.96;95010.63;6182015;23;20213;-82
2022/12/12 14:57:21;;;;;;;9.60;4.77;;;;;;;1.86;49.82;95012.09;6182470;23;20789;-83
2022/12/12 14:59:47;;;;;;;7.57;5.07;;;;;;;1.85;49.23;94997.78;6182374;23;20189;-83
2022/12/12 15:02:22;;;;;;;9.70;4.67;;;;;;;1.82;49.80;94995.53;6183237;23;20196;-80
2022/12/12 15:04:51;;;;;;;7.00;4.60;;;;;;;2.15;80.81;94995.00;6183057;23;20162;-82
2022/12/12 15:07:26;;;;;;;9.83;5.67;;;;;;;2.26;54.24;94994.03;6181332;23;20178;-83
2022/12/12 15:09:52;;;;;;;8.43;6.23;;;;;;;2.20;53.23;94995.41;6179412;23;20546;-80
2022/12/12 15:12:21;;;;;;;9.40;6.53;;;;;;;1.96;52.50;94985.72;6182171;23;20205;-82
2022/12/12 15:14:54;;;;;;;9.50;6.97;;;;;;;1.70;53.35;94988.09;6183613;23;20665;-82
2022/12/12 15:17:25;;;;;;;11.10;8.03;;;;;;;1.36;54.21;94986.91;6183129;23;20653;-82
2022/12/12 15:19:54;;;;;;;11.63;8.10;;;;;;;1.33;54.77;94988.00;6183513;23;20534;-80
2022/12/12 15:22:24;;;;;;;15.20;8.00;;;;;;;1.19;55.66;94992.66;6183473;23;20218;-81
2022/12/12 15:24:51;;;;;;;10.33;7.20;;;;;;;1.19;55.26;95001.06;6183677;23;20237;-82
2022/12/12 15:27:21;;;;;;;32.20;18.63;;;;;;;1.25;55.96;95002.28;6183577;23;20197;-80
2022/12/12 15:29:48;;;;;;;50.33;32.53;;;;;;;1.24;56.21;95005.75;6183106;23;20184;-82
2022/12/12 15:32:18;;;;;;;40.57;26.00;;;;;;;1.21;55.70;94995.88;6182834;23;20190;-82
2022/12/12 15:34:48;;;;;;;21.77;13.60;;;;;;;1.24;55.97;94993.88;6182600;23;20178;-82
2022/12/12 15:37:24;;;;;;;12.43;9.67;;;;;;;1.11;56.74;94995.88;6183106;23;20193;-81
2022/12/12 15:40:01;;;;;;;12.50;10.13;;;;;;;1.10;56.23;94991.75;6183333;23;20167;-82
2022/12/12 15:42:29;;;;;;;12.73;8.90;;;;;;;1.10;56.84;94999.34;6183701;23;20198;-82
2022/12/12 15:44:55;;;;;;;11.77;8.10;;;;;;;1.02;56.59;95000.00;6182942;23;20174;-82
2022/12/12 15:47:22;;;;;;;10.97;8.50;;;;;;;1.06;56.38;94980.25;6182376;23;20180;-82
2022/12/12 15:49:52;;;;;;;10.97;8.30;;;;;;;0.93;57.27;94994.94;6182177;23;20175;-82
2022/12/12 15:52:21;;;;;;;11.33;8.40;;;;;;;0.79;57.08;95003.72;6183065;23;20646;-82
2022/12/12 15:54:54;;;;;;;12.90;8.20;;;;;;;0.77;57.30;95004.78;6182366;23;20714;-81
2022/12/12 15:57:23;;;;;;;12.83;7.97;;;;;;;0.60;57.21;95001.94;6183200;23;20221;-82
2022/12/12 15:59:55;;;;;;;11.17;7.67;;;;;;;0.53;57.56;95005.13;6181964;23;20181;-80
2022/12/12 16:02:24;;;;;;;10.17;7.53;;;;;;;0.39;58.82;95003.75;6183171;23;20201;-82
2022/12/12 16:05:00;;;;;;;9.63;7.77;;;;;;;0.45;58.52;94999.91;6182841;23;20179;-82
2022/12/12 16:07:26;;;;;;;18.37;11.43;;;;;;;0.53;58.44;95012.75;6181482;23;20574;-82
2022/12/12 16:10:02;;;;;;;13.50;9.40;;;;;;;0.59;57.54;95002.06;6181737;23;20165;-84
2022/12/12 16:12:54;;;;;;;12.23;8.37;;;;;;;0.45;58.33;95002.44;6182032;23;20201;-82
2022/12/12 16:15:30;;;;;;;13.93;8.23;;;;;;;0.50;58.48;95007.94;6182235;23;20499;-80
2022/12/12 16:18:03;;;;;;;12.33;8.00;;;;;;;0.63;58.34;95000.88;6182067;23;20189;-81
2022/12/12 16:20:31;;;;;;;10.30;8.07;;;;;;;0.61;58.18;95007.81;6182355;23;20178;-83
2022/12/12 16:23:19;;;;;;;9.87;7.00;;;;;;;0.60;57.72;95006.19;6181921;23;20194;-81
2022/12/12 16:25:45;;;;;;;9.20;6.57;;;;;;;0.59;57.58;95010.47;6182399;23;20517;-81
2022/12/12 16:28:17;;;;;;;8.77;7.17;;;;;;;0.58;56.94;95006.34;6181836;23;20174;-80
2022/12/12 16:30:45;;;;;;;7.97;6.70;;;;;;;0.43;56.42;95015.22;6182995;23;20159;-81
2022/12/12 16:33:14;;;;;;;9.17;6.20;;;;;;;0.25;55.59;95017.56;6181881;23;20202;-82
2022/12/12 16:35:42;;;;;;;11.93;6.17;;;;;;;0.21;55.93;95012.88;6181665;23;20170;-82
2022/12/12 16:38:13;;;;;;;8.50;5.90;;;;;;;0.11;56.10;95020.44;6182083;23;20181;-82